createdAt,value
2022-09-04T00:01:45.135Z,15.60
2022-09-04T00:04:26.168Z,15.50
2022-09-04T00:07:12.948Z,15.50
2022-09-04T00:09:53.514Z,15.50
2022-09-04T00:12:30.963Z,15.50
2022-09-04T00:15:11.716Z,15.50
2022-09-04T00:17:49.739Z,15.50
2022-09-04T00:20:30.221Z,15.50
2022-09-04T00:23:05.367Z,15.50
2022-09-04T00:25:44.061Z,15.40
2022-09-04T00:28:33.631Z,15.40
2022-09-04T00:31:19.395Z,15.50
2022-09-04T00:34:01.286Z,15.40
2022-09-04T00:36:30.672Z,15.40
2022-09-04T00:39:11.967Z,15.50
2022-09-04T00:42:02.473Z,15.50
2022-09-04T00:45:04.141Z,15.50
2022-09-04T00:48:16.405Z,15.50
2022-09-04T00:51:10.094Z,15.40
2022-09-04T00:54:08.376Z,15.40
2022-09-04T00:57:07.020Z,15.50
2022-09-04T01:00:02.393Z,15.50
2022-09-04T01:03:05.553Z,15.50
2022-09-04T01:05:49.007Z,15.50
2022-09-04T01:08:25.132Z,15.50
2022-09-04T01:11:09.046Z,15.50
2022-09-04T01:13:43.105Z,15.50
2022-09-04T01:16:24.961Z,15.50
2022-09-04T01:19:01.557Z,15.50
2022-09-04T01:22:04.383Z,15.60
2022-09-04T01:25:01.203Z,15.60
2022-09-04T01:27:40.158Z,15.60
2022-09-04T01:30:11.348Z,15.60
2022-09-04T01:32:59.816Z,15.60
2022-09-04T01:35:35.052Z,15.60
2022-09-04T01:38:16.039Z,15.60
2022-09-04T01:40:52.755Z,15.60
2022-09-04T01:43:23.116Z,15.60
2022-09-04T01:46:21.699Z,15.60
2022-09-04T01:49:03.052Z,15.60
2022-09-04T01:51:40.544Z,15.60
2022-09-04T01:54:28.892Z,15.60
2022-09-04T01:57:13.541Z,15.60
2022-09-04T02:00:05.450Z,15.60
2022-09-04T02:02:53.192Z,15.60
2022-09-04T02:05:30.056Z,15.60
2022-09-04T02:08:24.195Z,15.60
2022-09-04T02:11:03.043Z,15.50
2022-09-04T02:13:48.524Z,15.50
2022-09-04T02:16:29.351Z,15.50
2022-09-04T02:19:10.987Z,15.50
2022-09-04T02:21:47.958Z,15.50
2022-09-04T02:24:33.642Z,15.50
2022-09-04T02:27:08.258Z,15.50
2022-09-04T02:29:48.380Z,15.40
2022-09-04T02:32:23.236Z,15.40
2022-09-04T02:35:00.847Z,15.40
2022-09-04T02:37:40.953Z,15.30
2022-09-04T02:40:22.166Z,15.30
2022-09-04T02:43:05.178Z,15.30
2022-09-04T02:45:44.753Z,15.30
2022-09-04T02:48:27.240Z,15.20
2022-09-04T02:51:19.145Z,15.20
2022-09-04T02:53:59.197Z,15.20
2022-09-04T02:56:40.729Z,15.20
2022-09-04T02:59:28.426Z,15.10
2022-09-04T03:01:58.758Z,15.10
2022-09-04T03:04:35.942Z,15.10
2022-09-04T03:07:11.803Z,15.10
2022-09-04T03:09:46.419Z,15.10
2022-09-04T03:12:29.985Z,15.10
2022-09-04T03:15:08.275Z,15.00
2022-09-04T03:17:48.735Z,15.00
2022-09-04T03:20:23.943Z,15.00
2022-09-04T03:22:58.970Z,15.00
2022-09-04T03:25:55.395Z,14.90
2022-09-04T03:28:45.952Z,14.90
2022-09-04T03:31:30.932Z,14.90
2022-09-04T03:34:18.982Z,14.80
2022-09-04T03:37:07.868Z,14.80
2022-09-04T03:39:50.902Z,14.70
2022-09-04T03:42:31.883Z,14.70
2022-09-04T03:45:18.510Z,14.60
2022-09-04T03:48:04.641Z,14.60
2022-09-04T03:50:44.047Z,14.50
2022-09-04T03:53:26.661Z,14.50
2022-09-04T03:56:44.668Z,14.50
2022-09-04T03:59:24.578Z,14.40
2022-09-04T04:02:06.298Z,14.40
2022-09-04T04:05:21.270Z,14.30
2022-09-04T04:08:10.714Z,14.30
2022-09-04T04:10:57.303Z,14.30
2022-09-04T04:13:49.262Z,14.20
2022-09-04T04:16:32.312Z,14.20
2022-09-04T04:19:36.613Z,14.20
2022-09-04T04:22:33.684Z,14.10
2022-09-04T04:25:20.297Z,14.10
2022-09-04T04:28:16.001Z,14.10
2022-09-04T04:30:50.179Z,14.10
2022-09-04T04:33:36.295Z,14.10
2022-09-04T04:36:16.206Z,14.10
2022-09-04T04:39:02.864Z,14.10
2022-09-04T04:41:53.648Z,14.10
2022-09-04T04:44:34.768Z,14.10
2022-09-04T04:47:14.743Z,14.10
2022-09-04T04:50:04.546Z,14.00
2022-09-04T04:52:47.352Z,14.00
2022-09-04T04:55:29.745Z,14.10
2022-09-04T04:58:18.394Z,14.10
2022-09-04T05:00:56.185Z,14.10
2022-09-04T05:03:33.851Z,14.10
2022-09-04T05:06:09.751Z,14.20
2022-09-04T05:08:47.314Z,14.20
2022-09-04T05:11:27.466Z,14.20
2022-09-04T05:14:17.364Z,14.30
2022-09-04T05:16:57.579Z,14.30
2022-09-04T05:19:36.084Z,14.30
2022-09-04T05:22:16.575Z,14.30
2022-09-04T05:24:57.624Z,14.30
2022-09-04T05:27:57.403Z,14.40
2022-09-04T05:30:37.949Z,14.40
2022-09-04T05:33:18.376Z,14.40
2022-09-04T05:35:53.941Z,14.50
2022-09-04T05:38:29.505Z,14.50
2022-09-04T05:41:06.812Z,14.50
2022-09-04T05:43:53.415Z,14.60
2022-09-04T05:46:41.506Z,14.60
2022-09-04T05:49:25.497Z,14.70
2022-09-04T05:52:11.481Z,14.70
2022-09-04T05:55:16.316Z,14.80
2022-09-04T05:58:04.936Z,14.90
2022-09-04T06:00:46.100Z,14.90
2022-09-04T06:03:50.848Z,15.00
2022-09-04T06:06:30.557Z,15.10
2022-09-04T06:09:23.847Z,15.20
2022-09-04T06:12:19.190Z,15.30
2022-09-04T06:15:19.201Z,15.40
2022-09-04T06:18:25.555Z,15.50
2022-09-04T06:21:21.228Z,15.60
2022-09-04T06:24:30.292Z,15.70
2022-09-04T06:27:20.848Z,15.80
2022-09-04T06:30:07.063Z,16.00
2022-09-04T06:33:11.982Z,16.10
2022-09-04T06:36:12.480Z,16.30
2022-09-04T06:42:11.610Z,16.60
2022-09-04T06:45:03.055Z,16.70
2022-09-04T06:47:48.739Z,16.80
2022-09-04T06:50:26.709Z,16.90
2022-09-04T06:53:13.674Z,17.00
2022-09-04T06:55:56.731Z,17.20
2022-09-04T06:59:05.237Z,17.30
2022-09-04T07:01:45.875Z,17.60
2022-09-04T07:04:35.829Z,17.80
2022-09-04T07:07:17.730Z,18.00
2022-09-04T07:09:49.251Z,18.40
2022-09-04T07:12:38.795Z,18.60
2022-09-04T07:15:43.406Z,18.80
2022-09-04T07:18:37.457Z,19.20
2022-09-04T07:21:15.927Z,19.70
2022-09-04T07:23:52.879Z,20.10
2022-09-04T07:26:27.216Z,20.30
2022-09-04T07:29:22.542Z,20.60
2022-09-04T07:32:03.189Z,20.70
2022-09-04T07:34:46.613Z,21.00
2022-09-04T07:37:26.685Z,21.30
2022-09-04T07:40:08.512Z,21.50
2022-09-04T07:42:46.708Z,21.80
2022-09-04T07:45:28.249Z,22.00
2022-09-04T07:48:12.713Z,22.10
2022-09-04T07:50:55.851Z,22.20
2022-09-04T07:53:57.563Z,22.50
2022-09-04T07:56:44.825Z,22.50
2022-09-04T07:59:47.796Z,22.40
2022-09-04T08:02:31.046Z,22.40
2022-09-04T08:05:23.340Z,22.30
2022-09-04T08:08:44.436Z,22.70
2022-09-04T08:11:30.143Z,23.00
2022-09-04T08:14:23.272Z,23.30
2022-09-04T08:17:19.261Z,23.30
2022-09-04T08:19:56.767Z,23.30
2022-09-04T08:22:39.997Z,23.50
2022-09-04T08:25:23.259Z,23.60
2022-09-04T08:28:13.144Z,23.80
2022-09-04T08:30:49.959Z,24.00
2022-09-04T08:34:29.584Z,24.20
2022-09-04T08:37:08.794Z,24.40
2022-09-04T08:39:52.165Z,24.70
2022-09-04T08:43:01.120Z,24.90
2022-09-04T08:46:28.355Z,25.20
2022-09-04T08:49:42.445Z,25.30
2022-09-04T08:53:04.069Z,25.50
2022-09-04T08:56:08.964Z,25.90
2022-09-04T08:59:35.079Z,26.20
2022-09-04T09:03:15.472Z,26.30
2022-09-04T09:06:54.780Z,26.40
2022-09-04T09:09:55.279Z,26.30
2022-09-04T09:13:20.112Z,26.40
2022-09-04T09:16:09.145Z,26.60
2022-09-04T09:18:41.114Z,26.90
2022-09-04T09:21:20.290Z,27.10
2022-09-04T09:24:30.846Z,27.20
2022-09-04T09:27:30.540Z,27.60
2022-09-04T09:30:07.371Z,27.80
2022-09-04T09:33:39.806Z,28.00
2022-09-04T09:36:29.144Z,28.20
2022-09-04T09:39:46.738Z,28.20
2022-09-04T09:43:17.042Z,28.10
2022-09-04T09:46:35.691Z,28.30
2022-09-04T09:49:57.917Z,28.60
2022-09-04T09:52:58.724Z,28.60
2022-09-04T09:56:29.849Z,28.80
2022-09-04T09:59:36.527Z,28.90
2022-09-04T10:02:43.134Z,28.80
2022-09-04T10:05:45.922Z,28.80
2022-09-04T10:08:49.686Z,28.90
2022-09-04T10:11:43.374Z,29.10
2022-09-04T10:15:01.288Z,29.30
2022-09-04T10:18:18.031Z,29.40
2022-09-04T10:21:34.015Z,29.40
2022-09-04T10:25:09.049Z,29.50
2022-09-04T10:28:22.568Z,29.60
2022-09-04T10:31:27.388Z,29.70
2022-09-04T10:34:18.819Z,29.90
2022-09-04T10:37:02.347Z,30.00
2022-09-04T10:39:49.204Z,29.90
2022-09-04T10:42:40.752Z,29.90
2022-09-04T10:45:26.025Z,30.00
2022-09-04T10:48:39.742Z,30.00
2022-09-04T10:51:59.597Z,29.90
2022-09-04T10:55:00.803Z,29.90
2022-09-04T10:57:48.860Z,30.00
2022-09-04T11:00:19.653Z,30.20
2022-09-04T11:03:33.270Z,30.20
2022-09-04T11:06:49.349Z,30.10
2022-09-04T11:09:44.529Z,30.20
2022-09-04T11:13:04.797Z,30.20
2022-09-04T11:16:01.932Z,30.40
2022-09-04T11:19:21.606Z,30.60
2022-09-04T11:22:41.892Z,30.30
2022-09-04T11:26:15.165Z,30.20
2022-09-04T11:29:09.490Z,30.30
2022-09-04T11:32:09.030Z,30.20
2022-09-04T11:35:33.175Z,30.50
2022-09-04T11:38:08.945Z,30.70
2022-09-04T11:41:35.246Z,30.90
2022-09-04T11:44:53.518Z,30.90
2022-09-04T11:47:56.362Z,30.70
2022-09-04T11:51:00.136Z,30.70
2022-09-04T11:54:05.140Z,30.50
2022-09-04T11:56:52.231Z,30.70
2022-09-04T11:59:50.065Z,30.70
2022-09-04T12:03:01.581Z,30.40
2022-09-04T12:06:06.060Z,30.40
2022-09-04T12:09:10.271Z,30.40
2022-09-04T12:12:17.816Z,30.50
2022-09-04T12:15:15.256Z,30.60
2022-09-04T12:18:27.239Z,30.40
2022-09-04T12:21:43.378Z,30.70
2022-09-04T12:24:53.981Z,30.80
2022-09-04T12:28:02.169Z,30.60
2022-09-04T12:30:44.074Z,30.80
2022-09-04T12:33:53.500Z,30.80
2022-09-04T12:37:08.757Z,30.90
2022-09-04T12:40:12.930Z,31.00
2022-09-04T12:42:54.842Z,31.20
2022-09-04T12:45:33.653Z,31.10
2022-09-04T12:48:12.158Z,31.10
2022-09-04T12:50:48.066Z,31.10
2022-09-04T12:53:42.705Z,31.00
2022-09-04T12:56:18.770Z,31.00
2022-09-04T12:59:15.980Z,30.50
2022-09-04T13:02:01.272Z,30.80
2022-09-04T13:04:42.346Z,31.00
2022-09-04T13:07:31.161Z,31.30
2022-09-04T13:10:16.705Z,31.30
2022-09-04T13:12:57.345Z,31.50
2022-09-04T13:15:51.528Z,31.50
2022-09-04T13:18:36.421Z,31.60
2022-09-04T13:21:25.483Z,30.60
2022-09-04T13:24:17.203Z,31.00
2022-09-04T13:27:04.448Z,31.20
2022-09-04T13:29:49.238Z,31.10
2022-09-04T13:33:00.641Z,30.60
2022-09-04T13:35:50.562Z,31.00
2022-09-04T13:38:51.853Z,31.40
2022-09-04T13:42:04.481Z,31.50
2022-09-04T13:45:06.137Z,31.60
2022-09-04T13:47:44.345Z,31.90
2022-09-04T13:50:22.570Z,31.80
2022-09-04T13:52:57.691Z,31.60
2022-09-04T13:55:29.729Z,31.50
2022-09-04T14:01:02.813Z,31.20
2022-09-04T14:04:00.782Z,30.60
2022-09-04T14:06:32.030Z,30.70
2022-09-04T14:09:05.374Z,30.70
2022-09-04T14:12:25.502Z,30.90
2022-09-04T14:15:33.141Z,31.10
2022-09-04T14:18:17.441Z,31.20
2022-09-04T14:20:54.199Z,31.30
2022-09-04T14:23:39.569Z,31.00
2022-09-04T14:26:21.468Z,30.80
2022-09-04T14:29:04.980Z,30.30
2022-09-04T14:31:46.951Z,29.60
2022-09-04T14:34:33.315Z,28.80
2022-09-04T14:37:14.553Z,28.40
2022-09-04T14:39:49.170Z,28.50
2022-09-04T14:42:37.495Z,28.70
2022-09-04T14:45:18.449Z,28.90
2022-09-04T14:47:48.730Z,29.00
2022-09-04T14:50:18.174Z,28.60
2022-09-04T14:52:51.519Z,28.50
2022-09-04T14:55:26.824Z,28.00
2022-09-04T14:58:01.996Z,28.00
2022-09-04T15:00:33.650Z,27.80
2022-09-04T15:03:08.701Z,27.50
2022-09-04T15:05:46.663Z,27.30
2022-09-04T15:08:28.429Z,27.00
2022-09-04T15:10:59.044Z,27.00
2022-09-04T15:13:52.399Z,27.00
2022-09-04T15:16:29.288Z,26.70
2022-09-04T15:19:07.306Z,26.80
2022-09-04T15:21:44.669Z,26.90
2022-09-04T15:24:26.505Z,27.00
2022-09-04T15:27:09.340Z,27.20
2022-09-04T15:29:48.201Z,27.50
2022-09-04T15:32:22.608Z,27.70
2022-09-04T15:34:50.632Z,27.50
2022-09-04T15:37:25.936Z,27.70
2022-09-04T15:40:06.673Z,28.00
2022-09-04T15:42:45.982Z,28.10
2022-09-04T15:45:24.720Z,28.10
2022-09-04T15:48:16.945Z,28.10
2022-09-04T15:51:01.919Z,28.10
2022-09-04T15:53:33.986Z,28.00
2022-09-04T15:56:09.568Z,27.90
2022-09-04T15:58:58.480Z,27.80
2022-09-04T16:01:30.513Z,27.60
2022-09-04T16:04:06.640Z,27.50
2022-09-04T16:06:45.615Z,27.50
2022-09-04T16:09:24.657Z,27.30
2022-09-04T16:12:15.761Z,27.10
2022-09-04T16:14:47.936Z,26.90
2022-09-04T16:17:23.518Z,26.70
2022-09-04T16:20:05.841Z,26.50
2022-09-04T16:22:43.371Z,26.30
2022-09-04T16:25:24.214Z,26.10
2022-09-04T16:28:02.962Z,25.90
2022-09-04T16:30:37.843Z,26.00
2022-09-04T16:33:20.477Z,26.10
2022-09-04T16:36:01.912Z,26.20
2022-09-04T16:38:40.818Z,26.20
2022-09-04T16:41:15.698Z,26.20
2022-09-04T16:44:12.169Z,26.20
2022-09-04T16:46:48.344Z,26.40
2022-09-04T16:49:26.066Z,26.50
2022-09-04T16:52:03.177Z,26.60
2022-09-04T16:54:36.621Z,26.60
2022-09-04T16:57:13.749Z,26.50
2022-09-04T16:59:48.487Z,26.30
2022-09-04T17:02:30.772Z,26.20
2022-09-04T17:05:19.468Z,25.90
2022-09-04T17:07:56.218Z,25.80
2022-09-04T17:10:40.542Z,25.60
2022-09-04T17:13:16.645Z,25.40
2022-09-04T17:15:55.705Z,25.10
2022-09-04T17:18:26.628Z,24.80
2022-09-04T17:22:20.177Z,24.60
2022-09-04T17:29:02.473Z,24.40
2022-09-04T17:29:10.499Z,24.20
2022-09-04T17:29:48.017Z,24.00
2022-09-04T17:35:38.207Z,23.80
2022-09-04T17:40:34.727Z,23.70
2022-09-04T17:40:55.519Z,23.50
2022-09-04T17:41:36.267Z,23.30
2022-09-04T17:44:29.959Z,23.10
2022-09-04T17:47:20.964Z,22.90
2022-09-04T17:49:51.540Z,22.80
2022-09-04T17:52:25.949Z,22.70
2022-09-04T17:54:58.468Z,22.60
2022-09-04T17:57:36.059Z,22.50
2022-09-04T18:00:08.039Z,22.40
2022-09-04T18:02:46.629Z,22.20
2022-09-04T18:05:21.957Z,22.10
2022-09-04T18:08:09.961Z,22.00
2022-09-04T18:10:52.323Z,21.90
2022-09-04T18:13:38.178Z,21.80
2022-09-04T18:16:42.383Z,21.70
2022-09-04T18:19:25.217Z,21.60
2022-09-04T18:22:25.108Z,21.50
2022-09-04T18:24:53.155Z,21.50
2022-09-04T18:27:28.600Z,21.40
2022-09-04T18:33:01.824Z,21.30
2022-09-04T18:37:20.785Z,21.10
2022-09-04T18:37:25.489Z,21.20
2022-09-04T18:39:09.010Z,21.00
2022-09-04T18:50:20.581Z,20.90
2022-09-04T18:50:28.267Z,20.80
2022-09-04T18:50:39.228Z,20.70
2022-09-04T18:53:35.832Z,20.60
2022-09-04T18:56:20.133Z,20.50
2022-09-04T18:58:58.211Z,20.40
2022-09-04T19:01:34.102Z,20.40
2022-09-04T19:04:32.720Z,20.30
2022-09-04T19:07:07.463Z,20.20
2022-09-04T19:09:58.492Z,20.20
2022-09-04T19:12:46.916Z,20.10
2022-09-04T19:15:54.439Z,20.10
2022-09-04T19:18:33.816Z,20.00
2022-09-04T19:21:26.153Z,20.00
2022-09-04T19:23:59.783Z,19.90
2022-09-04T19:26:41.262Z,19.90
2022-09-04T19:29:18.755Z,19.90
2022-09-04T19:31:54.412Z,19.80
2022-09-04T19:34:35.396Z,19.80
2022-09-04T19:37:51.695Z,19.80
2022-09-04T19:45:55.679Z,19.70
2022-09-04T19:46:08.896Z,19.70
2022-09-04T19:46:26.494Z,19.60
2022-09-04T19:50:48.867Z,19.50
2022-09-04T19:53:29.946Z,19.50
2022-09-04T19:54:37.687Z,19.40
2022-09-04T19:57:32.325Z,19.30
2022-09-04T20:00:31.324Z,19.30
2022-09-04T20:03:03.405Z,19.30
2022-09-04T20:05:32.972Z,19.30
2022-09-04T20:08:15.513Z,19.20
2022-09-04T20:10:47.437Z,19.20
2022-09-04T20:13:24.469Z,19.20
2022-09-04T20:16:02.259Z,19.20
2022-09-04T20:18:39.603Z,19.10
2022-09-04T20:21:16.189Z,19.10
2022-09-04T20:23:52.026Z,19.10
2022-09-04T20:26:23.273Z,19.10
2022-09-04T20:29:15.004Z,19.10
2022-09-04T20:31:52.476Z,19.10
2022-09-04T20:34:29.298Z,19.00
2022-09-04T20:37:17.914Z,19.00
2022-09-04T20:39:58.947Z,19.00
2022-09-04T20:42:34.436Z,19.00
2022-09-04T20:46:32.919Z,18.90
2022-09-04T20:52:49.127Z,18.90
2022-09-04T20:53:00.199Z,18.90
2022-09-04T20:54:28.977Z,18.80
2022-09-04T21:03:08.058Z,18.70
2022-09-04T21:03:27.872Z,18.70
2022-09-04T21:06:12.844Z,18.70
2022-09-04T21:08:53.277Z,18.60
2022-09-04T21:11:39.046Z,18.60
2022-09-04T21:14:16.540Z,18.60
2022-09-04T21:17:34.777Z,18.60
2022-09-04T21:20:34.936Z,18.50
2022-09-04T21:23:25.495Z,18.50
2022-09-04T21:26:11.339Z,18.50
2022-09-04T21:29:32.383Z,18.50
2022-09-04T21:32:33.249Z,18.40
2022-09-04T21:35:18.093Z,18.40
2022-09-04T21:37:55.461Z,18.40
2022-09-04T21:41:06.385Z,18.40
2022-09-04T21:44:14.680Z,18.30
2022-09-04T21:47:22.086Z,18.30
2022-09-04T21:50:43.404Z,18.30
2022-09-04T21:53:46.723Z,18.20
2022-09-04T21:59:53.349Z,18.20
2022-09-04T22:02:42.619Z,18.10
2022-09-04T22:03:24.375Z,18.10
2022-09-04T22:06:13.514Z,18.00
2022-09-04T22:13:26.210Z,18.00
2022-09-04T22:13:41.886Z,18.00
2022-09-04T22:14:58.002Z,18.00
2022-09-04T22:17:50.711Z,18.00
2022-09-04T22:20:42.301Z,17.90
2022-09-04T22:23:56.874Z,17.80
2022-09-04T22:27:09.036Z,17.80
2022-09-04T22:30:13.895Z,17.80
2022-09-04T22:33:27.848Z,17.80
2022-09-04T22:36:52.919Z,17.70
2022-09-04T22:40:06.981Z,17.70
2022-09-04T22:42:46.740Z,17.70
2022-09-04T22:45:59.497Z,17.60
2022-09-04T22:49:09.927Z,17.60
2022-09-04T22:52:12.344Z,17.60
2022-09-04T22:55:39.658Z,17.50
2022-09-04T22:58:30.946Z,17.40
2022-09-04T23:01:46.006Z,17.40
2022-09-04T23:04:41.753Z,17.40
2022-09-04T23:12:59.954Z,17.30
2022-09-04T23:13:46.412Z,17.30
2022-09-04T23:14:17.561Z,17.30
2022-09-04T23:17:23.250Z,17.20
2022-09-04T23:26:33.017Z,17.20
2022-09-04T23:26:53.270Z,17.10
2022-09-04T23:27:28.041Z,17.10
2022-09-04T23:30:07.966Z,17.10
2022-09-04T23:33:41.349Z,17.10
2022-09-04T23:37:08.796Z,17.00
2022-09-04T23:40:19.472Z,16.90
2022-09-04T23:43:16.089Z,16.90
2022-09-04T23:46:32.143Z,16.90
2022-09-04T23:49:38.400Z,16.80
2022-09-04T23:52:18.412Z,16.80
2022-09-04T23:55:36.621Z,16.80
2022-09-04T23:58:47.149Z,16.70
